createdAt,value
2023-05-19T00:00:21.442Z,71.84
2023-05-19T00:03:53.954Z,72.35
2023-05-19T00:07:01.483Z,72.32
2023-05-19T00:10:08.742Z,72.66
2023-05-19T00:13:12.698Z,72.13
2023-05-19T00:16:17.281Z,72.21
2023-05-19T00:19:22.144Z,72.34
2023-05-19T00:22:26.416Z,72.46
2023-05-19T00:25:31.654Z,72.34
2023-05-19T00:28:35.747Z,72.42
2023-05-19T00:31:39.435Z,72.91
2023-05-19T00:34:43.388Z,71.91
2023-05-19T00:37:47.099Z,72.33
2023-05-19T00:40:52.341Z,72.63
2023-05-19T00:43:56.542Z,72.59
2023-05-19T00:47:00.497Z,73.19
2023-05-19T00:50:04.629Z,72.46
2023-05-19T00:53:09.086Z,72.41
2023-05-19T00:56:14.437Z,72.49
2023-05-19T00:59:18.565Z,72.77
2023-05-19T01:02:22.776Z,72.22
2023-05-19T01:05:27.741Z,72.50
2023-05-19T01:08:32.747Z,72.75
2023-05-19T01:11:39.374Z,72.79
2023-05-19T01:14:44.030Z,72.61
2023-05-19T01:18:01.966Z,73.02
2023-05-19T01:21:37.968Z,73.66
2023-05-19T01:25:46.896Z,74.00
2023-05-19T01:29:29.576Z,73.09
2023-05-19T01:32:37.243Z,73.25
2023-05-19T01:35:44.122Z,73.09
2023-05-19T01:38:52.533Z,72.68
2023-05-19T01:41:59.060Z,73.37
2023-05-19T01:45:06.750Z,73.60
2023-05-19T01:48:13.056Z,73.30
2023-05-19T01:51:16.964Z,73.44
2023-05-19T01:54:20.959Z,73.37
2023-05-19T01:57:40.422Z,73.66
2023-05-19T02:00:55.086Z,74.27
2023-05-19T02:04:21.537Z,74.13
2023-05-19T02:07:42.642Z,74.43
2023-05-19T02:10:59.001Z,74.25
2023-05-19T02:14:11.736Z,73.81
2023-05-19T02:17:19.033Z,73.23
2023-05-19T02:20:24.820Z,74.03
2023-05-19T02:23:28.426Z,74.02
2023-05-19T02:26:34.739Z,74.09
2023-05-19T02:29:41.381Z,73.99
2023-05-19T02:32:46.896Z,74.09
2023-05-19T02:35:52.301Z,73.65
2023-05-19T02:38:56.263Z,74.29
2023-05-19T02:42:00.219Z,74.89
2023-05-19T02:45:04.373Z,74.71
2023-05-19T02:48:08.165Z,73.90
2023-05-19T02:51:13.813Z,74.09
2023-05-19T02:54:17.510Z,74.11
2023-05-19T02:57:22.190Z,74.10
2023-05-19T03:00:26.124Z,74.33
2023-05-19T03:03:30.462Z,74.37
2023-05-19T03:06:36.465Z,74.31
2023-05-19T03:09:41.334Z,74.75
2023-05-19T03:12:44.943Z,74.36
2023-05-19T03:15:51.175Z,74.45
2023-05-19T03:18:55.627Z,74.22
2023-05-19T03:22:00.889Z,74.09
2023-05-19T03:25:04.851Z,74.53
2023-05-19T03:28:10.275Z,74.88
2023-05-19T03:31:14.852Z,74.64
2023-05-19T03:34:18.942Z,74.55
2023-05-19T03:37:24.518Z,74.99
2023-05-19T03:40:28.920Z,74.39
2023-05-19T03:43:39.340Z,74.07
2023-05-19T03:46:44.973Z,74.40
2023-05-19T03:49:57.772Z,74.55
2023-05-19T03:53:26.302Z,74.27
2023-05-19T03:56:31.000Z,74.49
2023-05-19T03:59:35.494Z,74.27
2023-05-19T04:02:41.387Z,74.85
2023-05-19T04:05:46.060Z,74.65
2023-05-19T04:08:51.754Z,74.86
2023-05-19T04:11:55.886Z,74.29
2023-05-19T04:15:01.665Z,74.08
2023-05-19T04:18:05.698Z,74.82
2023-05-19T04:21:09.829Z,74.71
2023-05-19T04:24:16.647Z,74.36
2023-05-19T04:27:21.978Z,74.52
2023-05-19T04:30:26.446Z,74.57
2023-05-19T04:33:30.242Z,74.63
2023-05-19T04:36:35.097Z,74.59
2023-05-19T04:39:43.153Z,74.51
2023-05-19T04:42:49.848Z,74.38
2023-05-19T04:45:53.485Z,74.35
2023-05-19T04:49:01.319Z,74.06
2023-05-19T04:52:10.969Z,73.92
2023-05-19T04:55:17.239Z,74.47
2023-05-19T04:58:21.754Z,73.77
2023-05-19T05:01:26.644Z,73.91
2023-05-19T05:04:31.822Z,73.23
2023-05-19T05:07:35.933Z,73.77
2023-05-19T05:10:41.323Z,74.24
2023-05-19T05:13:45.893Z,73.76
2023-05-19T05:16:51.974Z,73.62
2023-05-19T05:20:00.938Z,73.95
2023-05-19T05:23:06.067Z,74.13
2023-05-19T05:26:21.441Z,73.55
2023-05-19T05:29:26.795Z,72.78
2023-05-19T05:32:31.262Z,73.39
2023-05-19T05:35:37.045Z,73.35
2023-05-19T05:38:42.585Z,73.53
2023-05-19T05:41:48.270Z,73.67
2023-05-19T05:44:52.102Z,73.32
2023-05-19T05:47:56.674Z,73.32
2023-05-19T05:51:01.078Z,73.30
2023-05-19T05:54:12.817Z,72.85
2023-05-19T05:57:24.069Z,72.95
2023-05-19T06:00:28.357Z,73.03
2023-05-19T06:03:33.559Z,72.94
2023-05-19T06:06:41.690Z,73.28
2023-05-19T06:09:46.317Z,72.79
2023-05-19T06:12:51.484Z,71.91
2023-05-19T06:15:55.758Z,72.38
2023-05-19T06:19:08.156Z,72.25
2023-05-19T06:22:12.218Z,72.06
2023-05-19T06:25:16.073Z,72.39
2023-05-19T06:28:21.671Z,72.29
2023-05-19T06:31:28.196Z,71.96
2023-05-19T06:34:35.263Z,71.75
2023-05-19T06:37:38.828Z,72.16
2023-05-19T06:40:42.943Z,72.32
2023-05-19T06:43:48.321Z,72.06
2023-05-19T06:46:52.226Z,72.36
2023-05-19T06:49:57.031Z,71.46
2023-05-19T06:53:04.106Z,72.60
2023-05-19T06:56:08.655Z,71.56
2023-05-19T06:59:16.700Z,71.54
2023-05-19T07:02:21.729Z,72.04
2023-05-19T07:05:25.784Z,71.61
2023-05-19T07:08:33.346Z,71.87
2023-05-19T07:11:39.558Z,72.00
2023-05-19T07:14:45.127Z,71.56
2023-05-19T07:17:50.068Z,71.56
2023-05-19T07:20:54.097Z,71.56
2023-05-19T07:23:58.213Z,71.15
2023-05-19T07:27:04.392Z,70.87
2023-05-19T07:30:11.246Z,71.57
2023-05-19T07:33:15.188Z,70.85
2023-05-19T07:36:19.367Z,70.92
2023-05-19T07:39:25.266Z,70.80
2023-05-19T07:42:29.504Z,70.89
2023-05-19T07:45:34.625Z,70.99
2023-05-19T07:48:38.841Z,70.85
2023-05-19T07:51:42.889Z,70.32
2023-05-19T07:54:47.551Z,70.36
2023-05-19T07:57:51.262Z,69.73
2023-05-19T08:00:58.811Z,69.72
2023-05-19T08:04:02.594Z,69.93
2023-05-19T08:07:06.661Z,69.98
2023-05-19T08:10:10.794Z,69.69
2023-05-19T08:13:14.761Z,69.78
2023-05-19T08:16:19.884Z,69.18
2023-05-19T08:19:23.920Z,69.62
2023-05-19T08:22:28.170Z,69.66
2023-05-19T08:25:32.226Z,69.07
2023-05-19T08:28:36.197Z,69.18
2023-05-19T08:31:41.963Z,69.21
2023-05-19T08:34:45.633Z,68.85
2023-05-19T08:37:49.875Z,68.85
2023-05-19T08:40:53.794Z,68.60
2023-05-19T08:43:57.789Z,68.54
2023-05-19T08:47:08.060Z,68.12
2023-05-19T08:50:17.105Z,67.24
2023-05-19T08:56:35.711Z,67.46
2023-05-19T08:59:40.790Z,68.18
2023-05-19T09:02:59.697Z,67.89
2023-05-19T09:06:10.443Z,67.85
2023-05-19T09:09:15.550Z,68.26
2023-05-19T09:12:19.236Z,67.75
2023-05-19T09:15:29.199Z,67.75
2023-05-19T09:18:34.152Z,67.65
2023-05-19T09:21:38.672Z,67.25
2023-05-19T09:24:43.178Z,67.06
2023-05-19T09:27:48.750Z,66.91
2023-05-19T09:31:04.521Z,66.66
2023-05-19T09:34:15.662Z,67.11
2023-05-19T09:37:19.351Z,66.79
2023-05-19T09:40:23.467Z,67.04
2023-05-19T09:43:30.062Z,66.85
2023-05-19T09:46:35.948Z,67.51
2023-05-19T09:49:48.503Z,67.45
2023-05-19T09:52:54.088Z,67.68
2023-05-19T09:55:59.225Z,68.27
2023-05-19T09:59:05.102Z,67.53
2023-05-19T10:02:18.715Z,68.11
2023-05-19T10:05:25.251Z,68.54
2023-05-19T10:08:31.861Z,67.66
2023-05-19T10:11:36.240Z,67.15
2023-05-19T10:14:41.685Z,66.98
2023-05-19T10:17:46.663Z,67.18
2023-05-19T10:20:53.852Z,67.31
2023-05-19T10:23:57.916Z,67.53
2023-05-19T10:27:09.812Z,67.54
2023-05-19T10:30:19.574Z,67.46
2023-05-19T10:33:39.914Z,67.38
2023-05-19T10:36:57.168Z,67.63
2023-05-19T10:40:02.058Z,67.63
2023-05-19T10:43:21.189Z,67.48
2023-05-19T10:46:26.910Z,67.15
2023-05-19T10:49:37.435Z,67.05
2023-05-19T10:52:42.388Z,67.75
2023-05-19T10:55:48.744Z,67.81
2023-05-19T10:58:52.997Z,67.79
2023-05-19T11:01:56.957Z,67.42
2023-05-19T11:05:10.798Z,67.93
2023-05-19T11:08:17.881Z,68.12
2023-05-19T11:11:23.396Z,67.86
2023-05-19T11:14:29.087Z,67.54
2023-05-19T11:17:34.466Z,67.24
2023-05-19T11:20:40.761Z,67.54
2023-05-19T11:23:45.685Z,67.51
2023-05-19T11:26:49.658Z,67.27
2023-05-19T11:29:54.367Z,67.03
2023-05-19T11:32:58.920Z,67.16
2023-05-19T11:36:02.508Z,67.21
2023-05-19T11:39:11.234Z,67.66
2023-05-19T11:42:15.013Z,67.54
2023-05-19T11:45:19.599Z,67.74
2023-05-19T11:48:23.853Z,67.66
2023-05-19T11:51:28.032Z,67.30
2023-05-19T11:54:36.551Z,67.36
2023-05-19T11:57:44.703Z,67.06
2023-05-19T12:00:52.563Z,66.92
2023-05-19T12:03:56.872Z,67.09
2023-05-19T12:07:01.128Z,66.99
2023-05-19T12:13:22.697Z,66.79
2023-05-19T12:16:35.374Z,67.13
2023-05-19T12:19:39.275Z,67.14
2023-05-19T12:22:44.107Z,66.92
2023-05-19T12:25:48.334Z,66.72
2023-05-19T12:28:53.846Z,66.57
2023-05-19T12:31:57.808Z,66.70
2023-05-19T12:35:05.896Z,66.55
2023-05-19T12:38:09.510Z,66.46
2023-05-19T12:41:14.608Z,66.69
2023-05-19T12:44:19.577Z,66.76
2023-05-19T12:47:23.886Z,66.23
2023-05-19T12:50:32.848Z,66.49
2023-05-19T12:53:38.237Z,66.54
2023-05-19T12:56:51.806Z,66.74
2023-05-19T13:00:02.124Z,66.89
2023-05-19T13:03:08.644Z,67.24
2023-05-19T13:06:13.144Z,66.71
2023-05-19T13:09:17.348Z,66.95
2023-05-19T13:12:21.279Z,66.52
2023-05-19T13:15:29.401Z,66.41
2023-05-19T13:18:34.868Z,66.25
2023-05-19T13:21:38.801Z,65.87
2023-05-19T13:24:42.678Z,65.69
2023-05-19T13:27:48.989Z,65.45
2023-05-19T13:30:55.196Z,65.54
2023-05-19T13:33:59.034Z,65.89
2023-05-19T13:37:03.027Z,65.59
2023-05-19T13:40:08.285Z,65.70
2023-05-19T13:43:12.455Z,65.95
2023-05-19T13:46:18.227Z,66.44
2023-05-19T13:49:22.981Z,66.29
2023-05-19T13:52:29.095Z,66.70
2023-05-19T13:55:34.571Z,66.27
2023-05-19T13:58:38.157Z,66.48
2023-05-19T14:01:43.795Z,66.70
2023-05-19T14:04:48.538Z,66.86
2023-05-19T14:07:52.400Z,66.74
2023-05-19T14:10:57.095Z,66.95
2023-05-19T14:14:03.382Z,67.18
2023-05-19T14:17:08.707Z,67.30
2023-05-19T14:20:14.039Z,67.10
2023-05-19T14:23:19.969Z,67.35
2023-05-19T14:26:23.977Z,67.46
2023-05-19T14:29:31.057Z,67.08
2023-05-19T14:32:36.315Z,67.45
2023-05-19T14:35:40.166Z,67.65
2023-05-19T14:38:44.326Z,67.70
2023-05-19T14:41:49.422Z,67.54
2023-05-19T14:44:53.431Z,67.91
2023-05-19T14:47:58.392Z,67.75
2023-05-19T14:51:02.796Z,67.93
2023-05-19T14:54:07.132Z,67.95
2023-05-19T14:57:11.150Z,67.98
2023-05-19T15:00:15.829Z,68.04
2023-05-19T15:03:23.141Z,68.12
2023-05-19T15:06:26.947Z,67.86
2023-05-19T15:09:31.031Z,67.99
2023-05-19T15:12:34.686Z,67.88
2023-05-19T15:15:38.634Z,68.21
2023-05-19T15:18:43.741Z,68.05
2023-05-19T15:21:49.911Z,67.99
2023-05-19T15:24:53.472Z,68.23
2023-05-19T15:27:57.396Z,68.05
2023-05-19T15:31:01.050Z,68.28
2023-05-19T15:34:06.320Z,68.37
2023-05-19T15:37:09.963Z,68.07
2023-05-19T15:40:14.635Z,68.61
2023-05-19T15:43:18.464Z,68.12
2023-05-19T15:46:22.771Z,68.86
2023-05-19T15:49:27.728Z,69.18
2023-05-19T15:52:31.885Z,68.83
2023-05-19T15:55:35.377Z,68.95
2023-05-19T15:58:39.252Z,68.98
2023-05-19T16:01:42.948Z,69.09
2023-05-19T16:04:48.124Z,69.40
2023-05-19T16:07:51.659Z,69.52
2023-05-19T16:10:56.003Z,69.44
2023-05-19T16:13:59.820Z,69.35
2023-05-19T16:17:03.678Z,69.46
2023-05-19T16:20:11.040Z,69.76
2023-05-19T16:23:14.919Z,69.30
2023-05-19T16:26:18.575Z,69.39
2023-05-19T16:29:22.379Z,69.76
2023-05-19T16:32:26.340Z,69.80
2023-05-19T16:35:32.245Z,69.73
2023-05-19T16:38:36.059Z,69.69
2023-05-19T16:41:39.992Z,69.42
2023-05-19T16:44:43.722Z,70.23
2023-05-19T16:47:48.924Z,69.73
2023-05-19T16:50:53.874Z,70.44
2023-05-19T16:53:58.042Z,70.29
2023-05-19T16:57:01.852Z,70.08
2023-05-19T17:00:07.196Z,70.29
2023-05-19T17:03:11.680Z,70.89
2023-05-19T17:06:17.347Z,70.21
2023-05-19T17:09:25.189Z,70.65
2023-05-19T17:12:29.357Z,70.10
2023-05-19T17:15:34.967Z,70.46
2023-05-19T17:18:38.985Z,70.87
2023-05-19T17:21:44.168Z,70.48
2023-05-19T17:24:48.306Z,70.99
2023-05-19T17:27:52.421Z,71.01
2023-05-19T17:30:56.245Z,71.42
2023-05-19T17:34:00.059Z,71.38
2023-05-19T17:37:05.960Z,71.11
2023-05-19T17:40:11.200Z,71.17
2023-05-19T17:43:15.059Z,71.10
2023-05-19T17:46:18.607Z,71.64
2023-05-19T17:49:23.072Z,71.50
2023-05-19T17:52:29.101Z,71.63
2023-05-19T17:55:34.178Z,71.68
2023-05-19T17:58:38.732Z,71.75
2023-05-19T18:01:43.242Z,71.15
2023-05-19T18:04:47.647Z,71.10
2023-05-19T18:07:55.651Z,71.39
2023-05-19T18:11:00.024Z,70.85
2023-05-19T18:14:04.023Z,71.49
2023-05-19T18:17:07.662Z,72.27
2023-05-19T18:20:13.649Z,71.99
2023-05-19T18:23:20.362Z,72.24
2023-05-19T18:26:24.520Z,71.98
2023-05-19T18:29:28.325Z,71.58
2023-05-19T18:32:32.244Z,71.97
2023-05-19T18:35:38.415Z,71.91
2023-05-19T18:38:44.067Z,72.77
2023-05-19T18:41:47.963Z,72.71
2023-05-19T18:44:51.936Z,72.13
2023-05-19T18:47:58.692Z,72.68
2023-05-19T18:51:03.866Z,72.36
2023-05-19T18:57:44.519Z,72.71
2023-05-19T19:00:48.889Z,72.14
2023-05-19T19:03:53.070Z,71.62
2023-05-19T19:06:57.022Z,72.32
2023-05-19T19:10:02.425Z,72.69
2023-05-19T19:13:06.783Z,72.70
2023-05-19T19:16:10.748Z,72.19
2023-05-19T19:19:14.758Z,72.43
2023-05-19T19:22:18.508Z,72.50
2023-05-19T19:25:23.884Z,73.07
2023-05-19T19:28:28.263Z,73.09
2023-05-19T19:31:33.389Z,72.16
2023-05-19T19:34:37.323Z,72.84
2023-05-19T19:37:41.478Z,73.15
2023-05-19T19:40:46.772Z,73.33
2023-05-19T19:43:51.027Z,72.50
2023-05-19T19:46:55.087Z,73.40
2023-05-19T19:49:59.187Z,73.27
2023-05-19T19:53:03.529Z,73.81
2023-05-19T19:56:09.044Z,72.52
2023-05-19T19:59:13.252Z,72.53
2023-05-19T20:02:17.635Z,72.75
2023-05-19T20:05:21.637Z,72.98
2023-05-19T20:08:25.846Z,73.13
2023-05-19T20:11:31.581Z,73.09
2023-05-19T20:14:35.488Z,73.38
2023-05-19T20:17:39.127Z,73.38
2023-05-19T20:20:44.136Z,73.49
2023-05-19T20:23:48.260Z,73.36
2023-05-19T20:26:53.486Z,74.12
2023-05-19T20:29:57.225Z,73.29
2023-05-19T20:33:01.433Z,73.13
2023-05-19T20:36:07.232Z,73.96
2023-05-19T20:39:11.673Z,73.31
2023-05-19T20:42:16.718Z,73.26
2023-05-19T20:45:21.278Z,73.61
2023-05-19T20:48:27.140Z,74.27
2023-05-19T20:51:34.784Z,73.65
2023-05-19T20:54:42.127Z,74.30
2023-05-19T20:57:50.188Z,74.02
2023-05-19T21:00:57.531Z,73.97
2023-05-19T21:04:06.868Z,73.18
2023-05-19T21:07:11.292Z,73.34
2023-05-19T21:10:15.418Z,73.35
2023-05-19T21:13:20.455Z,74.05
2023-05-19T21:16:24.895Z,74.37
2023-05-19T21:19:28.624Z,74.02
2023-05-19T21:22:32.499Z,73.77
2023-05-19T21:25:36.132Z,74.53
2023-05-19T21:28:41.651Z,73.74
2023-05-19T21:31:45.546Z,73.65
2023-05-19T21:34:49.806Z,73.65
2023-05-19T21:37:53.891Z,74.01
2023-05-19T21:40:57.940Z,74.16
2023-05-19T21:44:03.531Z,74.14
2023-05-19T21:47:07.552Z,74.17
2023-05-19T21:50:15.593Z,74.94
2023-05-19T21:53:19.568Z,74.84
2023-05-19T21:56:23.754Z,74.65
2023-05-19T21:59:29.313Z,74.48
2023-05-19T22:02:32.886Z,74.75
2023-05-19T22:05:38.328Z,73.87
2023-05-19T22:08:42.076Z,74.88
2023-05-19T22:11:46.432Z,74.26
2023-05-19T22:14:51.448Z,74.98
2023-05-19T22:17:55.505Z,74.79
2023-05-19T22:20:59.120Z,74.05
2023-05-19T22:24:03.113Z,74.64
2023-05-19T22:27:09.749Z,73.98
2023-05-19T22:30:15.733Z,74.13
2023-05-19T22:33:19.451Z,74.64
2023-05-19T22:36:23.529Z,74.64
2023-05-19T22:39:27.283Z,74.70
2023-05-19T22:42:31.265Z,74.27
2023-05-19T22:45:37.489Z,74.60
2023-05-19T22:48:41.984Z,74.32
2023-05-19T22:51:45.848Z,74.69
2023-05-19T22:54:50.010Z,74.61
2023-05-19T22:57:53.684Z,74.67
2023-05-19T23:00:59.170Z,74.90
2023-05-19T23:04:02.761Z,74.32
2023-05-19T23:07:06.924Z,75.07
2023-05-19T23:10:11.398Z,74.67
2023-05-19T23:13:17.618Z,74.54
2023-05-19T23:16:26.576Z,74.55
2023-05-19T23:19:33.259Z,74.08
2023-05-19T23:22:37.021Z,74.79
2023-05-19T23:25:40.909Z,75.13
2023-05-19T23:28:45.209Z,74.44
2023-05-19T23:31:50.721Z,75.05
2023-05-19T23:34:54.455Z,74.82
2023-05-19T23:37:58.392Z,75.09
2023-05-19T23:41:02.168Z,74.87
2023-05-19T23:44:06.443Z,75.30
2023-05-19T23:47:11.414Z,74.73
2023-05-19T23:50:15.675Z,74.62
2023-05-19T23:53:19.887Z,75.23
2023-05-19T23:56:23.964Z,74.15
2023-05-19T23:59:27.719Z,74.77
